Terminal Aerodrome Forecast
Issued by NWS Jackson, MS

Home | Current Version | Previous Version | Text Only | Print | Product List | Glossary On
Versions: 1 2 3 4 5 6 7 8 9 10 11 12 13 14 15
000
FTUS44 KJAN 221700
TAFMEI
TAF
KMEI 221720Z 2218/2318 06007KT P6SM VCTS SCT035CB BKN250
     FM230200 06003KT P6SM SCT100 BKN250
     FM231000 00000KT 4SM BR BKN250
     FM231400 15004KT P6SM SCT250=

USA.gov is the U.S. government's official web portal to all federal, state and local government web resources and services.